createdAt,value
2018-01-05T00:02:14.483Z,9.50
2018-01-05T00:04:42.766Z,9.40
2018-01-05T00:07:12.530Z,9.40
2018-01-05T00:09:40.782Z,9.40
2018-01-05T00:12:09.024Z,9.40
2018-01-05T00:14:37.257Z,9.30
2018-01-05T00:17:05.534Z,9.30
2018-01-05T00:19:33.805Z,9.30
2018-01-05T00:22:03.585Z,9.30
2018-01-05T00:24:31.825Z,9.40
2018-01-05T00:27:00.109Z,9.40
2018-01-05T00:29:28.378Z,9.40
2018-01-05T00:32:00.257Z,9.40
2018-01-05T00:34:28.532Z,9.30
2018-01-05T00:36:57.892Z,9.40
2018-01-05T00:39:26.141Z,9.40
2018-01-05T00:41:54.385Z,9.40
2018-01-05T00:44:24.121Z,9.40
2018-01-05T00:46:52.385Z,9.40
2018-01-05T00:49:20.613Z,9.40
2018-01-05T00:51:50.353Z,9.30
2018-01-05T00:54:18.646Z,9.40
2018-01-05T00:56:46.869Z,9.40
2018-01-05T00:59:15.092Z,9.40
2018-01-05T01:01:43.343Z,9.50
2018-01-05T01:04:11.572Z,9.50
2018-01-05T01:06:40.197Z,9.50
2018-01-05T01:09:08.461Z,9.50
2018-01-05T01:11:37.820Z,9.50
2018-01-05T01:14:06.044Z,9.60
2018-01-05T01:16:34.315Z,9.60
2018-01-05T01:19:02.570Z,9.60
2018-01-05T01:21:32.310Z,9.60
2018-01-05T01:24:00.992Z,9.60
2018-01-05T01:28:58.714Z,9.60
2018-01-05T01:31:28.118Z,9.60
2018-01-05T01:33:56.348Z,9.60
2018-01-05T01:36:24.573Z,9.60
2018-01-05T01:41:23.411Z,9.50
2018-01-05T01:43:51.645Z,9.50
2018-01-05T01:48:49.386Z,9.50
2018-01-05T01:51:17.617Z,9.50
2018-01-05T01:53:45.893Z,9.50
2018-01-05T01:58:43.580Z,9.60
2018-01-05T02:03:41.697Z,9.60
2018-01-05T02:08:39.853Z,9.60
2018-01-05T02:11:08.076Z,9.60
2018-01-05T02:13:36.304Z,9.70
2018-01-05T02:16:04.989Z,9.70
2018-01-05T02:18:34.369Z,9.70
2018-01-05T02:21:02.602Z,9.70
2018-01-05T02:23:30.893Z,9.70
2018-01-05T02:25:59.133Z,9.70
2018-01-05T02:28:28.890Z,9.70
2018-01-05T02:30:57.565Z,9.80
2018-01-05T02:33:27.301Z,9.80
2018-01-05T02:35:56.243Z,9.90
2018-01-05T02:38:25.264Z,9.80
2018-01-05T02:40:54.247Z,9.90
2018-01-05T02:43:22.467Z,9.80
2018-01-05T02:45:51.517Z,9.90
2018-01-05T02:48:19.776Z,9.80
2018-01-05T02:53:18.674Z,9.80
2018-01-05T02:55:48.049Z,9.80
2018-01-05T03:01:16.881Z,9.80
2018-01-05T03:03:45.100Z,9.80
2018-01-05T03:06:13.496Z,9.80
2018-01-05T03:08:42.889Z,9.70
2018-01-05T03:11:11.108Z,9.70
2018-01-05T03:13:39.344Z,9.60
2018-01-05T03:16:07.599Z,9.60
2018-01-05T03:18:35.828Z,9.50
2018-01-05T03:21:04.085Z,9.50
2018-01-05T03:26:02.267Z,9.50
2018-01-05T03:28:31.280Z,9.40
2018-01-05T03:30:59.976Z,9.40
2018-01-05T03:33:30.264Z,9.40
2018-01-05T03:35:58.484Z,9.40
2018-01-05T03:38:27.904Z,9.30
2018-01-05T03:40:56.128Z,9.20
2018-01-05T03:45:55.008Z,9.10
2018-01-05T03:48:23.236Z,9.10
2018-01-05T03:50:51.468Z,9.10
2018-01-05T03:53:20.869Z,9.00
2018-01-05T03:55:49.138Z,9.00
2018-01-05T03:58:17.789Z,9.00
2018-01-05T04:00:46.040Z,9.00
2018-01-05T04:03:15.040Z,9.00
2018-01-05T04:05:44.037Z,9.00
2018-01-05T04:08:13.065Z,9.00
2018-01-05T04:10:41.296Z,9.00
2018-01-05T04:13:09.526Z,8.90
2018-01-05T04:15:37.805Z,8.90
2018-01-05T04:18:06.039Z,8.90
2018-01-05T04:20:34.285Z,8.90
2018-01-05T04:23:04.064Z,8.90
2018-01-05T04:25:32.317Z,8.90
2018-01-05T04:28:00.561Z,8.80
2018-01-05T04:30:28.887Z,8.80
2018-01-05T04:35:28.829Z,8.70
2018-01-05T04:37:57.093Z,8.80
2018-01-05T04:40:25.321Z,8.70
2018-01-05T04:42:53.592Z,8.70
2018-01-05T04:45:21.816Z,8.70
2018-01-05T04:50:19.570Z,8.60
2018-01-05T04:52:49.309Z,8.70
2018-01-05T04:55:17.546Z,8.70
2018-01-05T04:57:45.837Z,8.70
2018-01-05T05:00:14.075Z,8.70
2018-01-05T05:02:43.808Z,8.70
2018-01-05T05:07:41.929Z,8.70
2018-01-05T05:10:10.157Z,8.80
2018-01-05T05:12:39.176Z,8.80
2018-01-05T05:15:08.532Z,8.80
2018-01-05T05:17:36.761Z,8.90
2018-01-05T05:22:35.249Z,8.90
2018-01-05T05:27:33.798Z,9.00
2018-01-05T05:30:02.807Z,9.10
2018-01-05T05:32:31.038Z,9.10
2018-01-05T05:34:59.313Z,9.20
2018-01-05T05:37:27.528Z,9.20
2018-01-05T05:39:55.764Z,9.30
2018-01-05T05:42:24.028Z,9.40
2018-01-05T05:44:53.388Z,9.40
2018-01-05T05:47:21.612Z,9.50
2018-01-05T05:49:49.892Z,9.60
2018-01-05T05:52:18.125Z,9.60
2018-01-05T05:54:46.344Z,9.60
2018-01-05T05:57:14.606Z,9.70
2018-01-05T05:59:42.828Z,9.70
2018-01-05T06:02:11.048Z,9.70
2018-01-05T06:04:39.321Z,9.80
2018-01-05T06:07:07.540Z,9.80
2018-01-05T06:09:35.760Z,9.80
2018-01-05T06:12:04.795Z,9.90
2018-01-05T06:17:02.930Z,9.90
2018-01-05T06:19:32.010Z,9.90
2018-01-05T06:22:01.398Z,10.00
2018-01-05T06:24:30.049Z,10.00
2018-01-05T06:26:58.325Z,10.00
2018-01-05T06:29:27.705Z,10.10
2018-01-05T06:31:56.701Z,10.10
2018-01-05T06:34:24.965Z,10.20
2018-01-05T06:36:54.333Z,10.20
2018-01-05T06:39:22.560Z,10.20
2018-01-05T06:44:21.048Z,10.20
2018-01-05T06:46:49.318Z,10.20
2018-01-05T06:49:17.599Z,10.20
2018-01-05T06:51:46.592Z,10.20
2018-01-05T06:54:14.835Z,10.20
2018-01-05T06:59:12.948Z,10.20
2018-01-05T07:01:41.175Z,10.20
2018-01-05T07:06:39.296Z,10.20
2018-01-05T07:09:07.533Z,10.20
2018-01-05T07:11:35.797Z,10.20
2018-01-05T07:14:04.038Z,10.20
2018-01-05T07:16:32.273Z,10.20
2018-01-05T07:19:00.550Z,10.10
2018-01-05T07:21:28.795Z,10.10
2018-01-05T07:23:58.547Z,10.10
2018-01-05T07:28:57.028Z,10.00
2018-01-05T07:31:25.270Z,10.00
2018-01-05T07:33:53.916Z,10.00
2018-01-05T07:36:22.545Z,9.90
2018-01-05T07:38:50.768Z,9.90
2018-01-05T07:41:19.060Z,9.90
2018-01-05T07:43:47.306Z,10.00
2018-01-05T07:46:15.531Z,9.90
2018-01-05T07:48:45.576Z,9.90
2018-01-05T07:51:15.300Z,9.90
2018-01-05T07:53:44.289Z,9.90
2018-01-05T07:56:12.535Z,9.90
2018-01-05T08:01:10.222Z,9.80
2018-01-05T08:03:38.500Z,9.80
2018-01-05T08:06:06.733Z,9.80
2018-01-05T08:08:34.968Z,9.80
2018-01-05T08:13:33.471Z,9.80
2018-01-05T08:16:02.484Z,9.80
2018-01-05T08:18:30.945Z,9.90
2018-01-05T08:20:59.202Z,9.90
2018-01-05T08:23:28.564Z,9.80
2018-01-05T08:25:57.641Z,9.90
2018-01-05T08:30:56.092Z,9.90
2018-01-05T08:33:25.868Z,9.90
2018-01-05T08:38:23.972Z,9.90
2018-01-05T08:40:52.225Z,9.90
2018-01-05T08:43:20.449Z,9.90
2018-01-05T08:45:48.696Z,10.00
2018-01-05T08:48:16.960Z,10.00
2018-01-05T08:50:45.956Z,10.00
2018-01-05T08:53:14.952Z,10.20
2018-01-05T08:58:13.512Z,10.30
2018-01-05T09:00:42.504Z,10.30
2018-01-05T09:05:40.236Z,10.30
2018-01-05T09:08:08.860Z,10.30
2018-01-05T09:13:06.972Z,10.40
2018-01-05T09:15:35.265Z,10.40
2018-01-05T09:18:03.553Z,10.30
2018-01-05T09:20:31.808Z,10.40
2018-01-05T09:23:00.039Z,10.50
2018-01-05T09:25:28.309Z,10.50
2018-01-05T09:27:57.661Z,10.60
2018-01-05T09:32:56.936Z,10.90
2018-01-05T09:37:56.076Z,11.00
2018-01-05T09:45:23.749Z,11.10
2018-01-05T09:47:52.405Z,11.10
2018-01-05T09:50:20.710Z,11.20
2018-01-05T09:52:48.961Z,11.20
2018-01-05T09:57:47.119Z,11.20
2018-01-05T10:00:15.348Z,11.20
2018-01-05T10:02:45.173Z,11.20
2018-01-05T10:05:13.801Z,11.30
2018-01-05T10:07:42.034Z,11.30
2018-01-05T10:12:40.577Z,11.40
2018-01-05T10:15:08.762Z,11.40
2018-01-05T10:17:39.274Z,11.30
2018-01-05T10:20:09.012Z,11.30
2018-01-05T10:22:38.046Z,11.40
2018-01-05T10:25:06.279Z,11.40
2018-01-05T10:30:04.756Z,11.50
2018-01-05T10:35:02.863Z,11.50
2018-01-05T10:40:01.041Z,11.40
2018-01-05T10:42:29.290Z,11.30
2018-01-05T10:44:57.580Z,11.30
2018-01-05T10:47:25.818Z,11.30
2018-01-05T10:49:54.044Z,11.30
2018-01-05T10:52:22.304Z,11.30
2018-01-05T10:54:51.302Z,11.30
2018-01-05T10:57:19.543Z,11.30
2018-01-05T11:01:37.012Z,11.20
2018-01-05T11:04:06.009Z,11.10
2018-01-05T11:06:34.254Z,11.20
2018-01-05T11:09:04.073Z,11.20
2018-01-05T11:12:16.507Z,11.20
2018-01-05T11:14:44.764Z,11.20
2018-01-05T11:17:13.004Z,11.10
2018-01-05T11:19:41.232Z,11.10
2018-01-05T11:22:11.000Z,11.10
2018-01-05T11:24:39.241Z,11.10
2018-01-05T11:27:07.460Z,11.00
2018-01-05T11:29:35.737Z,11.10
2018-01-05T11:32:03.978Z,11.10
2018-01-05T11:37:02.478Z,11.20
2018-01-05T11:39:31.477Z,11.20
2018-01-05T11:41:59.722Z,11.20
2018-01-05T11:44:27.986Z,11.20
2018-01-05T11:46:56.221Z,11.20
2018-01-05T11:49:24.448Z,11.30
2018-01-05T11:51:54.220Z,11.30
2018-01-05T11:54:22.452Z,11.30
2018-01-05T11:56:50.682Z,11.30
2018-01-05T11:59:19.349Z,11.20
2018-01-05T12:01:47.598Z,11.30
2018-01-05T12:04:16.601Z,11.40
2018-01-05T12:06:46.735Z,11.40
2018-01-05T12:11:45.565Z,11.40
2018-01-05T12:14:14.145Z,11.40
2018-01-05T12:16:42.384Z,11.40
2018-01-05T12:19:11.393Z,11.40
2018-01-05T12:21:39.682Z,11.50
2018-01-05T12:24:08.681Z,11.50
2018-01-05T12:26:37.673Z,11.70
2018-01-05T12:31:36.189Z,11.70
2018-01-05T12:34:04.429Z,11.80
2018-01-05T12:36:32.710Z,11.80
2018-01-05T12:39:00.948Z,11.90
2018-01-05T12:41:30.362Z,11.80
2018-01-05T12:43:59.095Z,11.90
2018-01-05T12:46:28.852Z,11.90
2018-01-05T12:48:57.077Z,11.90
2018-01-05T12:51:25.372Z,11.80
2018-01-05T12:53:53.616Z,11.90
2018-01-05T12:56:21.854Z,11.80
2018-01-05T13:01:19.996Z,11.80
2018-01-05T13:08:47.652Z,11.70
2018-01-05T13:18:45.097Z,11.80
2018-01-05T13:26:13.074Z,11.80
2018-01-05T13:28:42.889Z,11.80
2018-01-05T13:33:41.342Z,11.70
2018-01-05T13:38:39.481Z,11.80
2018-01-05T13:41:07.715Z,11.80
2018-01-05T13:43:35.984Z,11.70
2018-01-05T13:48:33.683Z,11.80
2018-01-05T13:53:31.422Z,11.80
2018-01-05T13:55:59.670Z,11.90
2018-01-05T13:58:27.953Z,11.80
2018-01-05T14:00:57.684Z,11.70
2018-01-05T14:03:26.684Z,11.80
2018-01-05T14:05:54.948Z,11.60
2018-01-05T14:10:52.633Z,11.60
2018-01-05T14:15:51.120Z,11.70
2018-01-05T14:18:27.050Z,11.60
2018-01-05T14:20:55.681Z,11.70
2018-01-05T14:25:54.921Z,11.70
2018-01-05T14:28:23.153Z,11.70
2018-01-05T14:35:51.501Z,11.70
2018-01-05T14:38:19.746Z,11.70
2018-01-05T14:40:49.517Z,11.70
2018-01-05T14:43:17.766Z,11.70
2018-01-05T14:45:46.392Z,11.60
2018-01-05T14:48:16.173Z,11.60
2018-01-05T14:50:44.412Z,11.50
2018-01-05T14:53:12.648Z,11.50
2018-01-05T14:55:40.929Z,11.40
2018-01-05T14:58:09.932Z,11.30
2018-01-05T15:00:38.556Z,11.40
2018-01-05T15:03:07.629Z,11.40
2018-01-05T15:10:35.237Z,11.50
2018-01-05T15:13:03.501Z,11.40
2018-01-05T15:18:01.643Z,11.40
2018-01-05T15:20:29.893Z,11.30
2018-01-05T15:22:59.666Z,11.30
2018-01-05T15:27:58.200Z,11.20
2018-01-05T15:30:26.460Z,11.20
2018-01-05T15:32:54.729Z,11.20
2018-01-05T15:35:22.969Z,11.20
2018-01-05T15:37:51.242Z,11.20
2018-01-05T15:40:19.500Z,11.20
2018-01-05T15:47:46.710Z,11.20
2018-01-05T15:50:15.697Z,11.20
2018-01-05T15:52:45.114Z,11.20
2018-01-05T15:57:43.253Z,11.20
2018-01-05T16:00:11.486Z,11.20
2018-01-05T16:02:39.752Z,11.10
2018-01-05T16:05:07.992Z,11.00
2018-01-05T16:07:36.277Z,11.00
2018-01-05T16:10:04.573Z,11.00
2018-01-05T16:12:34.329Z,11.00
2018-01-05T16:25:01.433Z,11.00
2018-01-05T16:27:30.487Z,11.00
2018-01-05T16:29:59.611Z,11.00
2018-01-05T16:32:28.599Z,11.10
2018-01-05T16:34:56.883Z,11.10
2018-01-05T16:42:27.180Z,10.90
2018-01-05T16:44:55.469Z,10.90
2018-01-05T16:47:23.746Z,10.90
2018-01-05T16:49:51.993Z,10.90
2018-01-05T16:52:20.319Z,10.90
2018-01-05T16:54:48.533Z,10.90
2018-01-05T16:57:16.770Z,10.90
2018-01-05T16:59:46.209Z,11.00
2018-01-05T17:04:44.749Z,11.00
2018-01-05T17:07:13.001Z,10.90
2018-01-05T17:09:42.379Z,11.00
2018-01-05T17:12:10.612Z,10.90
2018-01-05T17:14:38.913Z,11.00
2018-01-05T17:17:07.199Z,10.90
2018-01-05T17:22:05.044Z,11.00
2018-01-05T17:24:33.324Z,11.00
2018-01-05T17:27:01.581Z,11.00
2018-01-05T17:29:30.412Z,10.90
2018-01-05T17:31:59.491Z,10.90
2018-01-05T17:34:27.751Z,10.90
2018-01-05T17:36:56.059Z,10.90
2018-01-05T17:39:24.324Z,10.90
2018-01-05T17:46:52.661Z,10.90
2018-01-05T17:49:20.935Z,10.90
2018-01-05T17:51:49.232Z,10.90
2018-01-05T17:54:17.513Z,10.90
2018-01-05T17:56:46.569Z,10.90
2018-01-05T18:01:44.750Z,10.80
2018-01-05T18:04:12.973Z,10.80
2018-01-05T18:09:11.179Z,10.80
2018-01-05T18:11:39.406Z,10.80
2018-01-05T18:14:08.137Z,10.80
2018-01-05T18:16:36.379Z,10.80
2018-01-05T18:19:04.674Z,10.80
2018-01-05T18:24:02.509Z,10.70
2018-01-05T18:29:00.732Z,10.80
2018-01-05T18:34:00.183Z,10.80
2018-01-05T18:36:28.488Z,10.90
2018-01-05T18:43:56.537Z,10.80
2018-01-05T18:46:24.819Z,10.90
2018-01-05T18:48:53.080Z,10.90
2018-01-05T18:53:51.192Z,10.80
2018-01-05T18:56:19.456Z,10.80
2018-01-05T18:58:47.735Z,10.80
2018-01-05T19:01:17.494Z,10.80
2018-01-05T19:03:46.162Z,10.80
2018-01-05T19:06:14.393Z,10.80
2018-01-05T19:08:42.674Z,10.80
2018-01-05T19:11:12.080Z,10.80
2018-01-05T19:13:41.436Z,10.80
2018-01-05T19:16:10.117Z,10.80
2018-01-05T19:18:39.183Z,10.70
2018-01-05T19:23:36.994Z,10.60
2018-01-05T19:26:06.773Z,10.60
2018-01-05T19:28:35.067Z,10.50
2018-01-05T19:33:33.675Z,10.50
2018-01-05T19:36:01.980Z,10.40
2018-01-05T19:38:31.033Z,10.40
2018-01-05T19:41:00.054Z,10.40
2018-01-05T19:43:29.465Z,10.30
2018-01-05T19:45:57.740Z,10.30
2018-01-05T19:48:26.060Z,10.30
2018-01-05T19:50:54.337Z,10.20
2018-01-05T19:53:22.620Z,10.20
2018-01-05T20:00:49.926Z,10.20
2018-01-05T20:03:18.239Z,10.20
2018-01-05T20:05:46.504Z,10.10
2018-01-05T20:08:14.776Z,10.10
2018-01-05T20:10:44.583Z,10.00
2018-01-05T20:13:12.852Z,10.10
2018-01-05T20:15:42.615Z,9.90
2018-01-05T20:18:10.939Z,9.80
2018-01-05T20:20:39.196Z,9.80
2018-01-05T20:28:09.722Z,9.70
2018-01-05T20:33:08.280Z,9.60
2018-01-05T20:40:36.013Z,9.50
2018-01-05T20:45:34.190Z,9.50
2018-01-05T20:50:32.423Z,9.50
2018-01-05T20:53:00.705Z,9.40
2018-01-05T20:55:29.043Z,9.40
2018-01-05T20:57:58.816Z,9.40
2018-01-05T21:00:27.072Z,9.30
2018-01-05T21:02:56.911Z,9.30
2018-01-05T21:05:25.940Z,9.30
2018-01-05T21:07:55.340Z,9.30
2018-01-05T21:10:23.645Z,9.20
2018-01-05T21:12:51.925Z,9.20
2018-01-05T21:15:20.211Z,9.20
2018-01-05T21:17:50.054Z,9.20
2018-01-05T21:20:18.338Z,9.20
2018-01-05T21:22:46.949Z,9.20
2018-01-05T21:25:16.049Z,9.20
2018-01-05T21:32:44.091Z,9.00
2018-01-05T21:35:12.347Z,8.90
2018-01-05T21:40:11.320Z,8.80
2018-01-05T21:42:41.036Z,8.80
2018-01-05T21:45:10.818Z,8.80
2018-01-05T21:47:39.112Z,8.80
2018-01-05T21:50:07.371Z,8.90
2018-01-05T21:52:35.651Z,8.90
2018-01-05T21:55:03.960Z,8.90
2018-01-05T21:57:32.308Z,8.90
2018-01-05T22:00:01.353Z,8.80
2018-01-05T22:02:30.738Z,8.80
2018-01-05T22:07:29.680Z,8.80
2018-01-05T22:09:57.988Z,8.70
2018-01-05T22:12:26.256Z,8.70
2018-01-05T22:14:54.515Z,8.60
2018-01-05T22:17:24.314Z,8.70
2018-01-05T22:19:52.576Z,8.60
2018-01-05T22:24:50.831Z,8.50
2018-01-05T22:32:18.181Z,8.60
2018-01-05T22:34:47.937Z,8.60
2018-01-05T22:37:17.716Z,8.50
2018-01-05T22:39:45.988Z,8.50
2018-01-05T22:42:14.257Z,8.40
2018-01-05T22:44:42.500Z,8.40
2018-01-05T22:47:11.550Z,8.30
2018-01-05T22:49:39.815Z,8.20
2018-01-05T22:52:08.142Z,8.30
2018-01-05T22:54:36.395Z,8.20
2018-01-05T22:59:34.232Z,8.10
2018-01-05T23:04:33.145Z,8.10
2018-01-05T23:07:01.449Z,8.10
2018-01-05T23:09:29.688Z,7.90
2018-01-05T23:12:00.141Z,8.00
2018-01-05T23:14:29.225Z,7.90
2018-01-05T23:16:57.488Z,7.90
2018-01-05T23:19:25.751Z,8.00
2018-01-05T23:21:54.046Z,8.00
2018-01-05T23:24:22.304Z,8.10
2018-01-05T23:26:51.335Z,8.10
2018-01-05T23:31:49.540Z,8.00
2018-01-05T23:34:18.817Z,8.00
2018-01-05T23:36:47.925Z,8.00
2018-01-05T23:39:16.178Z,8.00
2018-01-05T23:41:44.486Z,7.90
2018-01-05T23:44:12.783Z,7.90
2018-01-05T23:46:41.052Z,7.90
2018-01-05T23:49:10.451Z,7.80
2018-01-05T23:51:39.469Z,7.90
2018-01-05T23:54:08.881Z,7.90
2018-01-05T23:56:37.545Z,7.90
2018-01-05T23:59:05.868Z,8.00
